Time;durP1;ratioP1;P1;durP2;ratioP2;P2;SDS_P1;SDS_P2;PMS_P1;PMS_P2;Temp;Humidity;BMP_temperature;BMP_pressure;BME280_temperature;BME280_humidity;BME280_pressure;Samples;Min_cycle;Max_cycle;Signal;HPM_P1;HPM_P2
2021/01/17 00:00:32;;;;;;;16.27;11.65;;;18.10;99.90;;;;;;5071595;28;20082;-38
2021/01/17 00:03:00;;;;;;;14.10;11.27;;;18.10;99.90;;;;;;5071329;28;20056;-39
2021/01/17 00:05:28;;;;;;;15.23;10.60;;;18.10;99.90;;;;;;5072045;28;20721;-39
2021/01/17 00:07:54;;;;;;;16.95;12.07;;;18.10;99.90;;;;;;5070398;28;20143;-38
2021/01/17 00:10:21;;;;;;;16.88;11.85;;;18.00;99.90;;;;;;5071672;28;20127;-38
2021/01/17 00:12:48;;;;;;;;;;;18.00;99.90;;;;;;5071687;28;20044;-38
2021/01/17 00:15:14;;;;;;;18.52;12.30;;;18.00;99.90;;;;;;5072083;28;19908;-38
2021/01/17 00:17:41;;;;;;;19.98;12.45;;;18.00;99.90;;;;;;5075057;28;20112;-37
2021/01/17 00:20:12;;;;;;;16.73;10.88;;;18.00;99.90;;;;;;5075397;28;20020;-38
2021/01/17 00:22:39;;;;;;;16.05;12.10;;;17.90;99.90;;;;;;5075031;28;20020;-38
2021/01/17 00:25:06;;;;;;;14.82;11.50;;;17.90;99.90;;;;;;5075401;28;20386;-37
2021/01/17 00:27:32;;;;;;;15.70;11.23;;;17.80;99.90;;;;;;5075289;28;20478;-39
2021/01/17 00:29:58;;;;;;;19.00;11.25;;;17.80;99.90;;;;;;5075021;28;20111;-38
2021/01/17 00:32:24;;;;;;;16.02;11.63;;;17.80;99.90;;;;;;5075021;28;20053;-39
2021/01/17 00:34:50;;;;;;;16.50;11.25;;;17.80;99.90;;;;;;5073809;28;20813;-39
2021/01/17 00:37:17;;;;;;;16.15;11.35;;;17.70;99.90;;;;;;5075097;28;20422;-39
2021/01/17 00:39:43;;;;;;;16.55;10.55;;;17.70;99.90;;;;;;5074790;28;20039;-39
2021/01/17 00:42:14;;;;;;;13.98;10.50;;;17.80;99.90;;;;;;5075024;28;20025;-39
2021/01/17 00:44:41;;;;;;;17.08;11.10;;;17.70;99.90;;;;;;5074559;28;20051;-39
2021/01/17 00:47:10;;;;;;;15.73;11.88;;;17.70;99.90;;;;;;5074800;28;20048;-39
2021/01/17 00:49:36;;;;;;;18.75;11.68;;;17.70;99.90;;;;;;5074750;28;20028;-38
2021/01/17 00:52:03;;;;;;;16.67;11.32;;;17.60;99.90;;;;;;5074526;28;20086;-39
2021/01/17 00:54:29;;;;;;;17.98;11.55;;;17.60;99.90;;;;;;5074648;28;20029;-38
2021/01/17 00:56:54;;;;;;;16.48;11.50;;;17.50;99.90;;;;;;5074435;28;20028;-39
2021/01/17 00:59:20;;;;;;;19.48;12.63;;;17.60;99.90;;;;;;5074783;28;20079;-39
2021/01/17 01:01:47;;;;;;;17.30;11.25;;;17.50;99.90;;;;;;5074531;28;20509;-39
2021/01/17 01:04:17;;;;;;;13.82;10.85;;;17.50;99.90;;;;;;5074283;28;20108;-38
2021/01/17 01:06:43;;;;;;;15.73;11.07;;;17.50;99.90;;;;;;5074522;28;20382;-38
2021/01/17 01:09:15;;;;;;;15.55;10.48;;;17.40;99.90;;;;;;5074488;28;20060;-38
2021/01/17 01:11:41;;;;;;;19.02;11.68;;;17.40;99.90;;;;;;5074324;28;20044;-39
2021/01/17 01:14:07;;;;;;;13.57;10.43;;;17.40;99.90;;;;;;5074081;28;20021;-38
2021/01/17 01:16:34;;;;;;;13.60;10.00;;;17.40;99.90;;;;;;5074163;28;20021;-38
2021/01/17 01:19:01;;;;;;;16.08;10.02;;;17.40;99.90;;;;;;5073944;28;20033;-38
2021/01/17 01:21:34;;;;;;;15.73;10.40;;;17.40;99.90;;;;;;5074376;28;20020;-38
2021/01/17 01:24:03;;;;;;;12.40;9.55;;;17.40;99.90;;;;;;5072731;28;20056;-38
2021/01/17 01:26:36;;;;;;;14.00;9.88;;;17.30;99.90;;;;;;5072752;28;20465;-39
2021/01/17 01:29:02;;;;;;;17.27;10.13;;;17.30;99.90;;;;;;5073263;28;20485;-38
2021/01/17 01:31:28;;;;;;;14.95;9.88;;;17.30;99.90;;;;;;5073796;28;20032;-39
2021/01/17 01:33:56;;;;;;;15.98;9.63;;;17.30;99.90;;;;;;5073862;28;20045;-38
2021/01/17 01:36:28;;;;;;;12.93;9.73;;;17.30;99.90;;;;;;5073975;28;20020;-38
2021/01/17 01:38:54;;;;;;;15.15;10.98;;;17.20;99.90;;;;;;5073802;28;20131;-38
2021/01/17 01:41:25;;;;;;;12.23;9.70;;;17.20;99.90;;;;;;5073894;28;20028;-38
2021/01/17 01:43:51;;;;;;;13.35;10.10;;;17.20;99.90;;;;;;5073810;28;20025;-37
2021/01/17 01:46:20;;;;;;;12.60;9.40;;;17.20;99.90;;;;;;5073483;28;20079;-38
2021/01/17 01:48:46;;;;;;;15.90;9.80;;;17.20;99.90;;;;;;5073743;28;20020;-38
2021/01/17 01:51:14;;;;;;;14.32;9.40;;;17.20;99.90;;;;;;5073428;28;20025;-38
2021/01/17 01:53:40;;;;;;;14.63;9.15;;;17.20;99.90;;;;;;5073659;28;20099;-38
2021/01/17 01:56:07;;;;;;;17.67;8.32;;;17.10;99.90;;;;;;5073180;28;20074;-37
2021/01/17 01:58:35;;;;;;;14.40;9.40;;;17.20;99.90;;;;;;5072327;28;20048;-38
2021/01/17 02:01:02;;;;;;;16.10;9.50;;;17.10;99.90;;;;;;5073257;28;20021;-38
2021/01/17 02:03:28;;;;;;;14.20;10.10;;;17.10;99.90;;;;;;5073262;28;20091;-37
2021/01/17 02:05:53;;;;;;;10.93;8.27;;;17.10;99.90;;;;;;5073134;28;20107;-37
2021/01/17 02:08:22;;;;;;;14.60;9.63;;;17.10;99.90;;;;;;5073235;28;20036;-38
2021/01/17 02:10:48;;;;;;;11.77;9.20;;;17.00;99.90;;;;;;5072876;28;20028;-37
2021/01/17 02:13:33;;;;;;;12.07;8.70;;;17.00;99.90;;;;;;5073358;28;20027;-38
2021/01/17 02:16:00;;;;;;;14.38;9.18;;;17.00;99.90;;;;;;5073171;28;20186;-38
2021/01/17 02:18:28;;;;;;;14.70;8.70;;;17.00;99.90;;;;;;5073208;28;20798;-38
2021/01/17 02:20:54;;;;;;;15.27;8.82;;;17.00;99.90;;;;;;5072567;28;20045;-37
2021/01/17 02:23:30;;;;;;;12.52;8.90;;;17.00;99.90;;;;;;5073186;28;20817;-37
2021/01/17 02:25:56;;;;;;;13.57;9.02;;;16.90;99.90;;;;;;5072867;28;20087;-38
2021/01/17 02:28:23;;;;;;;12.73;8.82;;;16.90;99.90;;;;;;5072817;28;20028;-38
2021/01/17 02:30:54;;;;;;;11.45;9.70;;;16.90;99.90;;;;;;5072620;28;20429;-38
2021/01/17 02:33:30;;;;;;;11.93;8.43;;;16.90;99.90;;;;;;5072701;28;20056;-37
2021/01/17 02:36:22;;;;;;;15.70;9.15;;;16.90;99.90;;;;;;5072805;28;20131;-37
2021/01/17 02:39:13;;;;;;;11.18;8.82;;;16.90;99.90;;;;;;5072854;28;20030;-37
2021/01/17 02:41:58;;;;;;;12.20;8.52;;;16.90;99.90;;;;;;5072007;28;20021;-37
2021/01/17 02:44:29;;;;;;;15.98;10.02;;;16.80;99.90;;;;;;5072075;28;20023;-37
2021/01/17 02:46:55;;;;;;;13.15;10.02;;;16.80;99.90;;;;;;5072509;28;20383;-37
2021/01/17 02:49:21;;;;;;;12.98;10.10;;;16.80;99.90;;;;;;5072389;28;20035;-37
2021/01/17 02:51:51;;;;;;;14.75;9.68;;;16.80;99.90;;;;;;5071281;28;20020;-37
2021/01/17 02:54:35;;;;;;;16.50;9.48;;;16.80;99.90;;;;;;5072408;28;20020;-37
2021/01/17 02:57:07;;;;;;;14.63;10.32;;;16.70;99.90;;;;;;5052322;28;20501;-37
2021/01/17 02:59:43;;;;;;;11.85;9.25;;;16.70;99.90;;;;;;5052602;28;20529;-37
2021/01/17 03:02:13;;;;;;;14.95;10.48;;;16.70;99.90;;;;;;5072311;28;20092;-37
2021/01/17 03:04:53;;;;;;;13.00;9.43;;;16.70;99.90;;;;;;5072241;28;20017;-37
2021/01/17 03:07:21;;;;;;;11.80;8.75;;;16.70;99.90;;;;;;5070893;28;20021;-26
2021/01/17 03:09:47;;;;;;;13.43;9.20;;;16.70;99.90;;;;;;5073164;28;20024;-26
2021/01/17 03:12:13;;;;;;;11.23;9.05;;;16.70;99.90;;;;;;5073242;28;20496;-26
2021/01/17 03:14:40;;;;;;;12.73;8.98;;;16.60;99.90;;;;;;5072402;28;20033;-26
2021/01/17 03:17:08;;;;;;;11.20;9.25;;;16.60;99.90;;;;;;5073547;28;20095;-26
2021/01/17 03:19:35;;;;;;;12.57;10.00;;;16.60;99.90;;;;;;5073291;28;20447;-26
2021/01/17 03:22:01;;;;;;;11.18;8.18;;;16.60;99.90;;;;;;5073618;28;20023;-26
2021/01/17 03:24:27;;;;;;;11.90;8.52;;;16.60;99.90;;;;;;5073441;28;20104;-26
2021/01/17 03:26:53;;;;;;;12.32;7.88;;;16.50;99.90;;;;;;5073517;28;20032;-26
2021/01/17 03:29:20;;;;;;;10.93;7.43;;;16.50;99.90;;;;;;5072998;28;20072;-26
2021/01/17 03:31:46;;;;;;;13.80;8.35;;;16.50;99.90;;;;;;5073343;28;20474;-26
2021/01/17 03:34:11;;;;;;;9.77;7.75;;;16.50;99.90;;;;;;5073124;28;20051;-26
2021/01/17 03:36:37;;;;;;;12.13;7.80;;;16.50;99.90;;;;;;5073355;28;20028;-26
2021/01/17 03:39:04;;;;;;;10.43;7.78;;;16.50;99.90;;;;;;5073197;28;20021;-26
2021/01/17 03:41:30;;;;;;;11.20;7.15;;;16.50;99.90;;;;;;5073402;28;20035;-26
2021/01/17 03:43:56;;;;;;;9.20;6.80;;;16.40;99.90;;;;;;5073016;28;20111;-26
2021/01/17 03:46:22;;;;;;;11.75;7.03;;;16.40;99.90;;;;;;5073738;28;20470;-26
2021/01/17 03:48:49;;;;;;;11.35;7.47;;;16.40;99.90;;;;;;5073059;28;20025;-26
2021/01/17 03:51:15;;;;;;;10.23;7.33;;;16.40;99.90;;;;;;5072985;28;20020;-26
2021/01/17 03:53:41;;;;;;;10.68;7.47;;;16.40;99.90;;;;;;5072936;28;20495;-26
2021/01/17 03:56:06;;;;;;;12.68;7.70;;;16.40;99.90;;;;;;5073320;28;20078;-26
2021/01/17 03:58:32;;;;;;;9.75;6.78;;;16.40;99.90;;;;;;5072908;28;20039;-26
2021/01/17 04:00:58;;;;;;;11.93;7.93;;;16.40;99.90;;;;;;5073116;28;20016;-26
2021/01/17 04:03:24;;;;;;;9.35;6.38;;;16.40;99.90;;;;;;5072999;28;20025;-26
2021/01/17 04:05:50;;;;;;;11.43;6.93;;;16.30;99.90;;;;;;5073044;28;20028;-26
2021/01/17 04:08:16;;;;;;;7.38;6.68;;;16.30;99.90;;;;;;5072925;28;20154;-26
2021/01/17 04:10:42;;;;;;;10.65;6.85;;;16.30;99.90;;;;;;5073005;28;20024;-26
2021/01/17 04:13:08;;;;;;;8.40;6.18;;;16.30;99.90;;;;;;5072752;28;20083;-26
2021/01/17 04:15:34;;;;;;;8.45;6.65;;;16.30;99.90;;;;;;5073088;28;20028;-26
2021/01/17 04:17:59;;;;;;;9.82;6.38;;;16.30;99.90;;;;;;5073227;28;20027;-26
2021/01/17 04:20:25;;;;;;;8.32;5.82;;;16.30;99.90;;;;;;5072703;28;20467;-26
2021/01/17 04:22:51;;;;;;;8.45;6.07;;;16.30;99.90;;;;;;5073059;28;20028;-26
2021/01/17 04:25:17;;;;;;;7.63;5.70;;;16.30;99.90;;;;;;5072616;28;20020;-26
2021/01/17 04:27:43;;;;;;;20.38;7.63;;;16.30;99.90;;;;;;5072853;28;20028;-26
2021/01/17 04:30:09;;;;;;;8.32;6.03;;;16.30;99.90;;;;;;5072800;28;20021;-26
2021/01/17 04:32:39;;;;;;;7.68;5.55;;;16.20;99.90;;;;;;5072863;28;20123;-26
2021/01/17 04:35:05;;;;;;;11.65;6.57;;;16.20;99.90;;;;;;5072616;28;20037;-26
2021/01/17 04:37:31;;;;;;;8.32;6.10;;;16.20;99.90;;;;;;5072684;28;20035;-26
2021/01/17 04:39:57;;;;;;;10.95;6.35;;;16.20;99.90;;;;;;5072068;28;20459;-26
2021/01/17 04:42:25;;;;;;;10.55;6.43;;;16.20;99.90;;;;;;5072125;28;20025;-26
2021/01/17 04:45:01;;;;;;;10.65;6.25;;;16.20;99.90;;;;;;5071840;28;20413;-26
2021/01/17 04:47:28;;;;;;;7.63;6.45;;;16.20;99.90;;;;;;5072109;28;20356;-26
2021/01/17 04:50:00;;;;;;;9.68;6.05;;;16.20;99.90;;;;;;5071337;28;20036;-26
2021/01/17 04:52:29;;;;;;;9.13;5.63;;;16.20;99.90;;;;;;5071993;28;20029;-26
2021/01/17 04:54:57;;;;;;;8.77;6.50;;;16.10;99.90;;;;;;5071359;28;20056;-27
2021/01/17 04:57:37;;;;;;;9.55;5.72;;;16.10;99.90;;;;;;5071689;28;20083;-27
2021/01/17 05:00:09;;;;;;;10.00;5.78;;;16.20;99.90;;;;;;5071501;28;20108;-27
2021/01/17 05:02:43;;;;;;;8.68;5.45;;;16.10;99.90;;;;;;5071186;28;20025;-27
2021/01/17 05:05:25;;;;;;;9.40;6.20;;;16.10;99.90;;;;;;5074978;28;20023;-27
2021/01/17 05:08:21;;;;;;;9.43;5.68;;;16.10;99.90;;;;;;5075413;28;20651;-27
2021/01/17 05:10:59;;;;;;;8.75;5.65;;;16.10;99.90;;;;;;5055509;28;20363;-27
2021/01/17 05:13:29;;;;;;;6.10;5.03;;;16.10;99.90;;;;;;5073289;28;20082;-30
2021/01/17 05:15:56;;;;;;;10.73;5.65;;;16.10;99.90;;;;;;5075019;28;20082;-26
2021/01/17 05:18:23;;;;;;;7.53;5.35;;;16.10;99.90;;;;;;5074938;28;20035;-27
2021/01/17 05:20:56;;;;;;;8.48;5.38;;;16.10;99.90;;;;;;5076000;28;20059;-27
2021/01/17 05:23:22;;;;;;;7.50;5.40;;;16.10;99.90;;;;;;5075492;28;20024;-27
2021/01/17 05:25:49;;;;;;;8.90;5.40;;;16.10;99.90;;;;;;5075182;28;20047;-27
2021/01/17 05:28:15;;;;;;;10.32;5.78;;;16.10;99.90;;;;;;5075775;28;20111;-27
2021/01/17 05:30:47;;;;;;;11.18;5.22;;;16.00;99.90;;;;;;5075045;28;20111;-27
2021/01/17 05:33:18;;;;;;;9.32;5.70;;;16.00;99.90;;;;;;5075029;28;20445;-26
2021/01/17 05:35:44;;;;;;;8.73;5.45;;;16.00;99.90;;;;;;5074402;28;20371;-27
2021/01/17 05:38:14;;;;;;;9.30;5.40;;;16.00;99.90;;;;;;5074150;28;20028;-31
2021/01/17 05:40:40;;;;;;;9.80;5.40;;;16.00;99.90;;;;;;5074180;28;20025;-26
2021/01/17 05:43:08;;;;;;;6.88;5.45;;;16.00;99.90;;;;;;5074400;28;20100;-27
2021/01/17 05:45:34;;;;;;;12.05;6.03;;;16.00;99.90;;;;;;5074143;28;20482;-26
2021/01/17 05:48:02;;;;;;;9.15;5.70;;;15.90;99.90;;;;;;5074085;28;20391;-26
2021/01/17 05:50:30;;;;;;;8.77;5.50;;;15.90;99.90;;;;;;5074617;28;20107;-26
2021/01/17 05:53:01;;;;;;;9.05;5.72;;;15.90;99.90;;;;;;5074618;28;20032;-26
2021/01/17 05:55:44;;;;;;;7.18;5.28;;;15.90;99.90;;;;;;5074413;28;20375;-26
2021/01/17 05:58:23;;;;;;;7.00;5.40;;;15.80;99.90;;;;;;5074571;28;20031;-26
2021/01/17 06:00:51;;;;;;;7.68;5.50;;;15.80;99.90;;;;;;5074232;28;20027;-25
2021/01/17 06:03:20;;;;;;;8.13;5.45;;;15.90;99.90;;;;;;5074655;28;20040;-25
2021/01/17 06:05:48;;;;;;;7.32;5.32;;;15.80;99.90;;;;;;5074235;28;20090;-25
2021/01/17 06:08:17;;;;;;;;;;;15.80;99.90;;;;;;5075038;28;20032;-25
2021/01/17 06:10:45;;;;;;;8.82;5.68;;;15.80;99.90;;;;;;5074173;28;19908;-25
2021/01/17 06:13:19;;;;;;;6.32;5.05;;;15.80;99.90;;;;;;5074107;28;20037;-26
2021/01/17 06:15:45;;;;;;;6.93;4.90;;;15.80;99.90;;;;;;5074401;28;20040;-35
2021/01/17 06:18:17;;;;;;;6.85;5.00;;;15.80;99.90;;;;;;5073715;28;20025;-26
2021/01/17 06:20:45;;;;;;;8.30;5.30;;;15.80;99.90;;;;;;5074487;28;20020;-27
2021/01/17 06:23:11;;;;;;;8.02;5.60;;;15.70;99.90;;;;;;5074747;28;20025;-26
2021/01/17 06:25:37;;;;;;;9.77;5.35;;;15.70;99.90;;;;;;5073175;28;20035;-27
2021/01/17 06:28:14;;;;;;;8.75;5.10;;;15.70;99.90;;;;;;5074299;28;20021;-26
2021/01/17 06:30:41;;;;;;;6.60;5.57;;;15.70;99.90;;;;;;5074231;28;20032;-27
2021/01/17 06:33:08;;;;;;;6.20;5.15;;;15.70;99.90;;;;;;5074143;28;20055;-26
2021/01/17 06:35:37;;;;;;;6.05;4.93;;;15.70;99.90;;;;;;5073998;28;20043;-26
2021/01/17 06:38:19;;;;;;;5.72;4.72;;;15.70;99.90;;;;;;5073876;28;20435;-26
2021/01/17 06:40:46;;;;;;;8.18;4.80;;;15.60;99.90;;;;;;5073725;28;20024;-27
2021/01/17 06:43:13;;;;;;;7.30;5.30;;;15.60;99.90;;;;;;5073733;28;20023;-26
2021/01/17 06:45:44;;;;;;;6.82;5.25;;;15.60;99.90;;;;;;5073614;28;20032;-27
2021/01/17 06:48:24;;;;;;;8.48;5.40;;;15.60;99.90;;;;;;5073806;28;20113;-27
2021/01/17 06:50:50;;;;;;;9.45;5.47;;;15.60;99.90;;;;;;5071672;28;20108;-26
2021/01/17 06:53:25;;;;;;;12.18;5.90;;;15.60;99.90;;;;;;5073242;28;20163;-27
2021/01/17 06:56:14;;;;;;;10.10;5.85;;;15.60;99.90;;;;;;5071706;28;20060;-27
2021/01/17 06:58:41;;;;;;;6.13;4.55;;;15.50;99.90;;;;;;5073513;28;20096;-26
2021/01/17 07:01:08;;;;;;;8.85;5.20;;;15.60;99.90;;;;;;5074169;28;20016;-28
2021/01/17 07:03:56;;;;;;;7.60;5.22;;;15.50;99.90;;;;;;5071159;28;20052;-27
2021/01/17 07:07:01;;;;;;;8.50;5.07;;;15.50;99.90;;;;;;5067997;28;20032;-31
2021/01/17 07:10:01;;;;;;;7.53;5.35;;;15.60;99.90;;;;;;5066895;28;20032;-27
2021/01/17 07:12:45;;;;;;;8.65;5.72;;;15.60;99.90;;;;;;5071632;28;20028;-26
2021/01/17 07:15:12;;;;;;;7.32;5.55;;;15.50;99.90;;;;;;5072755;28;20397;-26
2021/01/17 07:17:41;;;;;;;9.00;5.32;;;15.50;99.90;;;;;;5073028;28;20074;-29
2021/01/17 07:20:13;;;;;;;8.70;5.95;;;15.60;99.90;;;;;;5073560;28;20029;-28
2021/01/17 07:22:42;;;;;;;8.45;5.05;;;15.60;99.90;;;;;;5073467;28;20055;-29
2021/01/17 07:25:10;;;;;;;8.15;5.10;;;15.50;99.90;;;;;;5072774;28;20393;-27
2021/01/17 07:27:50;;;;;;;8.73;5.13;;;15.60;99.90;;;;;;5073524;28;20482;-28
2021/01/17 07:30:29;;;;;;;8.52;5.82;;;15.60;99.90;;;;;;5073333;28;20036;-27
2021/01/17 07:32:55;;;;;;;7.90;5.47;;;15.60;99.90;;;;;;5073197;28;20052;-27
2021/01/17 07:35:27;;;;;;;9.98;4.90;;;15.60;99.90;;;;;;5072315;28;20052;-27
2021/01/17 07:37:55;;;;;;;9.35;5.20;;;15.50;99.90;;;;;;5057828;28;20055;-27
2021/01/17 07:43:27;;;;;;;8.38;5.75;;;15.50;99.90;;;;;;5030933;28;20026;-27
2021/01/17 07:45:59;;;;;;;9.50;5.97;;;15.60;99.90;;;;;;5030909;28;20061;-29
2021/01/17 07:48:25;;;;;;;9.13;5.30;;;15.60;99.90;;;;;;5030867;28;20099;-27
2021/01/17 07:50:56;;;;;;;9.05;6.25;;;15.50;99.90;;;;;;5031030;28;20064;-26
2021/01/17 07:53:37;;;;;;;8.38;5.53;;;15.50;99.90;;;;;;5031042;28;20025;-27
2021/01/17 07:56:11;;;;;;;8.10;6.00;;;15.60;99.90;;;;;;5030990;28;20053;-28
2021/01/17 07:58:50;;;;;;;13.82;6.95;;;15.60;99.90;;;;;;5030913;28;20041;-28
2021/01/17 08:01:31;;;;;;;10.90;6.75;;;15.60;99.90;;;;;;5030581;28;20025;-28
2021/01/17 08:04:17;;;;;;;8.48;6.57;;;15.70;99.90;;;;;;5030941;28;20037;-27
2021/01/17 08:06:45;;;;;;;7.33;5.67;;;15.70;99.90;;;;;;5004473;28;20056;-29
2021/01/17 08:09:17;;;;;;;12.23;6.97;;;15.70;99.90;;;;;;5010941;28;20026;-28
2021/01/17 08:11:55;;;;;;;8.07;6.68;;;15.70;99.90;;;;;;5029583;28;20549;-28
2021/01/17 08:14:32;;;;;;;12.85;10.10;;;15.70;99.90;;;;;;5029799;28;20075;-40
2021/01/17 08:17:15;;;;;;;16.58;12.32;;;15.60;99.90;;;;;;5042815;28;20036;-38
2021/01/17 08:19:53;;;;;;;18.00;13.27;;;15.70;99.90;;;;;;5070616;28;20031;-39
2021/01/17 08:22:19;;;;;;;;;;;15.70;99.90;;;;;;5071644;28;20028;-39
2021/01/17 08:24:59;;;;;;;18.23;12.93;;;15.80;99.90;;;;;;5070834;28;19912;-39
2021/01/17 08:27:30;;;;;;;18.77;12.43;;;15.80;99.90;;;;;;5071065;28;20471;-39
2021/01/17 08:30:08;;;;;;;16.65;11.95;;;15.80;99.90;;;;;;5072074;28;20032;-27
2021/01/17 08:32:45;;;;;;;19.02;12.90;;;15.80;99.90;;;;;;5071680;28;20502;-28
2021/01/17 08:35:23;;;;;;;19.75;14.10;;;15.80;99.90;;;;;;5072511;28;20505;-27
2021/01/17 08:37:53;;;;;;;19.38;13.45;;;15.80;99.90;;;;;;5072623;28;20478;-38
2021/01/17 08:40:22;;;;;;;18.98;13.90;;;15.80;99.90;;;;;;5074492;28;20032;-39
2021/01/17 08:42:53;;;;;;;19.30;14.07;;;15.80;99.90;;;;;;5074937;28;20025;-29
2021/01/17 08:45:21;;;;;;;20.10;13.20;;;15.80;99.90;;;;;;5075856;28;20025;-26
2021/01/17 08:47:52;;;;;;;22.27;16.92;;;15.80;99.90;;;;;;5075438;28;20035;-26
2021/01/17 08:50:41;;;;;;;26.35;19.10;;;15.80;99.90;;;;;;5075499;28;20107;-26
2021/01/17 08:53:11;;;;;;;34.40;24.77;;;15.80;99.90;;;;;;5073239;28;20036;-26
2021/01/17 08:55:48;;;;;;;33.28;24.75;;;15.90;99.90;;;;;;5075176;28;20154;-25
2021/01/17 08:58:16;;;;;;;36.72;26.80;;;15.80;99.90;;;;;;5075188;28;20021;-25
2021/01/17 09:00:47;;;;;;;;;;;15.90;99.90;;;;;;5075535;28;20826;-25
2021/01/17 09:03:31;;;;;;;35.25;25.60;;;16.10;99.90;;;;;;5072594;28;20034;-26
2021/01/17 09:06:01;;;;;;;30.85;18.95;;;16.10;99.90;;;;;;5073864;28;20154;-25
2021/01/17 09:08:28;;;;;;;25.63;19.85;;;16.20;99.90;;;;;;5073697;28;20105;-28
2021/01/17 09:10:57;;;;;;;21.42;15.50;;;16.30;99.90;;;;;;5075454;28;20020;-27
2021/01/17 09:13:32;;;;;;;24.52;16.33;;;16.40;99.90;;;;;;5074372;28;20458;-26
2021/01/17 09:15:59;;;;;;;19.42;14.30;;;16.50;99.90;;;;;;5074425;28;20043;-26
2021/01/17 09:18:26;;;;;;;18.63;14.00;;;16.60;99.90;;;;;;5075355;28;20458;-26
2021/01/17 09:20:54;;;;;;;17.77;11.75;;;16.60;99.90;;;;;;5075536;28;20036;-28
2021/01/17 09:23:21;;;;;;;13.43;10.15;;;16.70;99.90;;;;;;5075570;28;20028;-27
2021/01/17 09:25:59;;;;;;;16.77;12.07;;;16.70;99.90;;;;;;5075195;28;20628;-27
2021/01/17 09:28:25;;;;;;;;;;;16.70;99.90;;;;;;5075240;28;20747;-27
2021/01/17 09:30:54;;;;;;;31.52;17.50;;;16.90;99.90;;;;;;5108213;28;19915;-27
2021/01/17 09:33:20;;;;;;;24.90;20.02;;;16.90;99.90;;;;;;5074454;28;20443;-26
2021/01/17 09:35:47;;;;;;;22.40;18.02;;;17.00;99.90;;;;;;5075243;28;20033;-27
2021/01/17 09:38:18;;;;;;;33.10;23.98;;;17.00;99.90;;;;;;5074050;28;20024;-26
2021/01/17 09:40:50;;;;;;;37.33;23.27;;;17.00;99.90;;;;;;5074230;28;20486;-26
2021/01/17 09:43:17;;;;;;;33.53;21.80;;;17.00;99.90;;;;;;5075158;28;20036;-26
2021/01/17 09:45:49;;;;;;;29.63;18.95;;;17.00;99.90;;;;;;5075333;28;20020;-26
2021/01/17 09:48:20;;;;;;;29.63;19.23;;;17.00;99.90;;;;;;5074092;28;20103;-26
2021/01/17 09:50:46;;;;;;;30.58;19.73;;;17.00;99.90;;;;;;5074142;28;20055;-26
2021/01/17 09:53:13;;;;;;;30.33;21.73;;;17.10;99.90;;;;;;5071820;28;20017;-26
2021/01/17 09:55:41;;;;;;;29.27;20.75;;;17.10;99.90;;;;;;5072974;28;20359;-37
2021/01/17 09:58:11;;;;;;;25.67;20.13;;;17.10;99.90;;;;;;5072849;28;20024;-38
2021/01/17 10:00:39;;;;;;;30.52;19.23;;;17.20;99.90;;;;;;5071889;28;20059;-37
2021/01/17 10:03:12;;;;;;;24.02;16.65;;;17.20;99.90;;;;;;5072844;28;20382;-38
2021/01/17 10:05:38;;;;;;;21.08;15.77;;;17.20;99.90;;;;;;5073036;28;20063;-38
2021/01/17 10:08:15;;;;;;;21.83;15.45;;;17.30;99.90;;;;;;5072680;28;20074;-38
2021/01/17 10:10:44;;;;;;;17.42;13.18;;;17.30;99.90;;;;;;5073050;28;20032;-37
2021/01/17 10:13:11;;;;;;;23.27;18.05;;;17.40;99.90;;;;;;5072266;28;20033;-38
2021/01/17 10:15:38;;;;;;;23.35;16.75;;;17.30;99.90;;;;;;5071699;28;20035;-38
2021/01/17 10:18:04;;;;;;;;;;;17.40;99.90;;;;;;5072942;28;20028;-38
2021/01/17 10:20:33;;;;;;;20.27;14.40;;;17.50;99.90;;;;;;5072673;28;19957;-38
2021/01/17 10:23:07;;;;;;;21.73;12.27;;;17.60;99.90;;;;;;5072595;28;20037;-38
2021/01/17 10:25:35;;;;;;;21.83;12.80;;;17.70;99.90;;;;;;5072434;28;20020;-38
2021/01/17 10:28:02;;;;;;;27.08;14.10;;;17.70;99.90;;;;;;5071724;28;20033;-38
2021/01/17 10:30:29;;;;;;;23.60;15.10;;;17.60;99.90;;;;;;5064850;28;20033;-39
2021/01/17 10:33:06;;;;;;;21.70;15.27;;;17.60;99.90;;;;;;5071640;28;20490;-39
2021/01/17 10:35:37;;;;;;;27.35;14.20;;;17.60;99.90;;;;;;5071822;28;20037;-39
2021/01/17 10:38:08;;;;;;;19.88;15.00;;;17.60;99.90;;;;;;5071069;28;20031;-39
2021/01/17 10:40:36;;;;;;;19.08;14.23;;;17.70;99.90;;;;;;5071507;28;20013;-39
2021/01/17 10:43:12;;;;;;;23.10;15.75;;;17.70;99.90;;;;;;5071414;28;20035;-39
2021/01/17 10:45:39;;;;;;;30.60;22.20;;;17.80;99.90;;;;;;5071052;28;20062;-39
2021/01/17 10:48:17;;;;;;;34.20;24.02;;;17.90;99.90;;;;;;5071769;28;20023;-39
2021/01/17 10:50:46;;;;;;;35.72;25.08;;;18.00;99.90;;;;;;5071762;28;20067;-39
2021/01/17 10:53:18;;;;;;;34.78;25.58;;;18.10;99.90;;;;;;5071795;28;20028;-40
2021/01/17 10:55:50;;;;;;;40.38;29.63;;;18.20;99.90;;;;;;5072506;28;20044;-43
2021/01/17 10:58:33;;;;;;;40.90;29.30;;;18.30;99.90;;;;;;5071905;28;20386;-39
2021/01/17 11:01:00;;;;;;;40.97;32.47;;;18.40;99.90;;;;;;5071383;28;20130;-39
2021/01/17 11:03:34;;;;;;;40.77;32.10;;;18.40;99.90;;;;;;5070943;28;20675;-39
2021/01/17 11:06:07;;;;;;;46.10;32.35;;;18.50;99.90;;;;;;5072079;28;20028;-39
2021/01/17 11:08:54;;;;;;;41.15;31.77;;;18.70;99.90;;;;;;5072214;28;20119;-39
2021/01/17 11:11:22;;;;;;;43.17;34.90;;;18.80;99.90;;;;;;5071986;28;20060;-39
2021/01/17 11:13:57;;;;;;;41.60;33.65;;;18.90;99.90;;;;;;5071789;28;20420;-40
2021/01/17 11:16:49;;;;;;;42.65;33.13;;;19.00;99.90;;;;;;5072200;28;20422;-39
2021/01/17 11:19:15;;;;;;;46.10;35.70;;;19.00;99.90;;;;;;5071945;28;20100;-39
2021/01/17 11:21:43;;;;;;;42.67;34.25;;;19.20;99.90;;;;;;5071933;28;20025;-39
2021/01/17 11:24:10;;;;;;;45.05;35.03;;;19.30;99.90;;;;;;5071270;28;20029;-39
2021/01/17 11:26:37;;;;;;;42.38;33.53;;;19.30;99.90;;;;;;5070772;28;20521;-39
2021/01/17 11:29:12;;;;;;;43.35;32.80;;;19.40;99.90;;;;;;5071582;28;20471;-39
2021/01/17 11:31:43;;;;;;;41.58;32.13;;;19.50;99.90;;;;;;5071011;28;20103;-39
2021/01/17 11:34:13;;;;;;;38.95;32.05;;;19.60;99.90;;;;;;5070928;28;20040;-39
2021/01/17 11:36:39;;;;;;;38.08;30.95;;;19.80;99.90;;;;;;5071617;28;20028;-39
2021/01/17 11:39:05;;;;;;;37.40;30.85;;;19.90;99.90;;;;;;5071682;28;20021;-39
2021/01/17 11:41:34;;;;;;;36.08;28.98;;;20.00;99.90;;;;;;5071400;28;20036;-38
2021/01/17 11:44:12;;;;;;;38.88;29.58;;;20.20;99.90;;;;;;5070846;28;20403;-39
2021/01/17 11:46:39;;;;;;;41.30;29.60;;;20.30;99.90;;;;;;5071258;28;20048;-38
2021/01/17 11:49:06;;;;;;;39.03;30.60;;;20.40;99.90;;;;;;5071323;28;20101;-38
2021/01/17 11:51:32;;;;;;;41.37;31.63;;;20.50;99.90;;;;;;5070740;28;20012;-38
2021/01/17 11:54:24;;;;;;;34.38;26.05;;;20.60;99.90;;;;;;5071191;28;20246;-38
2021/01/17 11:57:01;;;;;;;32.80;24.58;;;20.80;99.90;;;;;;5066727;28;20032;-38
2021/01/17 11:59:31;;;;;;;35.63;25.30;;;21.00;99.90;;;;;;5069354;28;20020;-38
2021/01/17 12:01:57;;;;;;;35.20;28.05;;;20.90;99.90;;;;;;5065368;28;20482;-38
2021/01/17 12:04:25;;;;;;;41.42;29.40;;;21.00;99.90;;;;;;5071141;28;20070;-38
2021/01/17 12:07:07;;;;;;;39.47;29.58;;;21.00;99.90;;;;;;5070251;28;20091;-38
2021/01/17 12:09:34;;;;;;;55.00;39.10;;;21.10;99.90;;;;;;5070676;28;20039;-39
2021/01/17 12:12:16;;;;;;;57.08;33.97;;;21.30;99.90;;;;;;5072526;28;20029;-39
2021/01/17 12:14:43;;;;;;;67.28;35.38;;;21.20;99.90;;;;;;5072725;28;20863;-39
2021/01/17 12:17:10;;;;;;;55.30;33.28;;;21.20;99.90;;;;;;5074191;28;20040;-39
2021/01/17 12:19:36;;;;;;;46.35;30.88;;;21.30;99.90;;;;;;5074151;28;20031;-26
2021/01/17 12:22:04;;;;;;;43.95;28.92;;;21.50;99.90;;;;;;5076586;28;20025;-26
2021/01/17 12:24:31;;;;;;;52.33;30.08;;;21.60;99.90;;;;;;5076666;28;20020;-26
2021/01/17 12:26:57;;;;;;;46.13;29.25;;;21.70;99.90;;;;;;5076165;28;20474;-26
2021/01/17 12:29:23;;;;;;;51.55;31.27;;;21.80;99.90;;;;;;5076481;28;20032;-26
2021/01/17 12:31:51;;;;;;;40.97;29.80;;;21.90;99.90;;;;;;5076061;28;20032;-26
2021/01/17 12:34:17;;;;;;;43.42;29.27;;;22.00;99.90;;;;;;5076395;28;20055;-27
2021/01/17 12:36:44;;;;;;;43.38;28.45;;;22.10;99.90;;;;;;5075723;28;20036;-26
2021/01/17 12:39:12;;;;;;;44.22;26.98;;;22.40;99.90;;;;;;5076384;28;20036;-26
2021/01/17 12:41:40;;;;;;;33.88;25.75;;;22.50;99.90;;;;;;5076361;28;20037;-27
2021/01/17 12:44:06;;;;;;;37.08;26.08;;;22.50;99.90;;;;;;5076535;28;20025;-26
2021/01/17 12:46:32;;;;;;;40.97;26.08;;;22.30;99.90;;;;;;5076182;28;20032;-26
2021/01/17 12:48:58;;;;;;;37.28;24.88;;;22.20;99.90;;;;;;5076441;28;20367;-26
2021/01/17 12:51:24;;;;;;;33.80;23.67;;;22.10;99.90;;;;;;5075895;28;20509;-26
2021/01/17 12:53:51;;;;;;;35.65;24.23;;;22.10;99.90;;;;;;5076149;28;20498;-28